createdAt,value
2023-03-26T00:01:36.497Z,3.80
2023-03-26T00:04:06.745Z,4.30
2023-03-26T00:06:39.474Z,3.13
2023-03-26T00:09:13.255Z,3.00
2023-03-26T00:11:41.635Z,3.33
2023-03-26T00:14:14.570Z,3.63
2023-03-26T00:16:43.083Z,3.57
2023-03-26T00:19:11.674Z,3.07
2023-03-26T00:21:39.961Z,2.80
2023-03-26T00:24:11.828Z,3.83
2023-03-26T00:26:41.416Z,3.83
2023-03-26T00:29:10.259Z,3.23
2023-03-26T00:31:39.876Z,1.70
2023-03-26T00:34:10.464Z,1.70
2023-03-26T00:36:42.528Z,3.60
2023-03-26T00:39:11.940Z,1.97
2023-03-26T00:41:43.196Z,5.03
2023-03-26T00:44:12.513Z,3.40
2023-03-26T00:46:41.117Z,4.20
2023-03-26T00:49:11.202Z,2.80
2023-03-26T00:51:40.309Z,3.47
2023-03-26T00:54:08.945Z,2.57
2023-03-26T00:56:38.658Z,3.70
2023-03-26T00:59:06.863Z,3.23
2023-03-26T01:01:36.538Z,4.20
2023-03-26T01:04:28.117Z,3.23
2023-03-26T01:07:00.022Z,2.97
2023-03-26T01:09:33.528Z,3.30
2023-03-26T01:12:05.635Z,3.73
2023-03-26T01:14:33.906Z,4.80
2023-03-26T01:17:03.698Z,4.03
2023-03-26T01:19:39.157Z,4.37
2023-03-26T01:22:11.318Z,4.73
2023-03-26T01:24:41.048Z,3.37
2023-03-26T01:27:21.286Z,5.23
2023-03-26T01:29:55.628Z,2.87
2023-03-26T01:32:40.761Z,3.63
2023-03-26T01:35:23.083Z,4.07
2023-03-26T01:38:14.408Z,5.27
2023-03-26T01:40:49.411Z,6.13
2023-03-26T01:43:29.775Z,3.70
2023-03-26T01:45:59.742Z,4.23
2023-03-26T01:48:33.074Z,4.63
2023-03-26T01:51:01.063Z,4.43
2023-03-26T01:53:29.730Z,4.40
2023-03-26T01:56:10.842Z,2.70
2023-03-26T01:58:51.288Z,4.10
2023-03-26T02:01:30.253Z,4.00
2023-03-26T02:04:07.987Z,4.70
2023-03-26T02:06:44.210Z,5.73
2023-03-26T02:09:16.057Z,4.87
2023-03-26T02:11:47.520Z,3.77
2023-03-26T02:14:16.627Z,4.47
2023-03-26T02:16:46.993Z,3.47
2023-03-26T02:19:21.751Z,6.43
2023-03-26T02:21:51.470Z,4.07
2023-03-26T02:24:20.373Z,4.47
2023-03-26T02:26:49.747Z,7.00
2023-03-26T02:29:20.301Z,3.97
2023-03-26T02:31:49.304Z,4.87
2023-03-26T02:34:17.941Z,5.73
2023-03-26T02:36:46.198Z,5.83
2023-03-26T02:39:14.394Z,4.80
2023-03-26T02:41:42.449Z,5.40
2023-03-26T02:44:11.877Z,5.30
2023-03-26T02:46:39.875Z,4.40
2023-03-26T02:49:08.613Z,6.70
2023-03-26T02:51:37.405Z,4.33
2023-03-26T02:54:06.993Z,4.07
2023-03-26T02:56:35.628Z,5.93
2023-03-26T02:59:03.790Z,5.50
2023-03-26T03:01:35.430Z,5.03
2023-03-26T03:04:05.106Z,5.00
2023-03-26T03:06:33.075Z,5.73
2023-03-26T03:09:02.680Z,5.00
2023-03-26T03:11:30.751Z,5.83
2023-03-26T03:13:59.682Z,6.23
2023-03-26T03:16:28.550Z,4.63
2023-03-26T03:18:58.622Z,3.70
2023-03-26T03:21:29.390Z,4.93
2023-03-26T03:24:00.242Z,5.47
2023-03-26T03:26:30.219Z,6.80
2023-03-26T03:28:59.239Z,6.30
2023-03-26T03:31:28.396Z,5.63
2023-03-26T03:33:57.941Z,7.40
2023-03-26T03:36:27.810Z,6.60
2023-03-26T03:38:56.271Z,5.60
2023-03-26T03:41:24.262Z,5.03
2023-03-26T03:43:52.256Z,4.53
2023-03-26T03:46:20.367Z,5.87
2023-03-26T03:48:49.918Z,5.97
2023-03-26T03:51:20.206Z,7.50
2023-03-26T03:53:49.334Z,8.67
2023-03-26T03:56:19.555Z,5.67
2023-03-26T03:58:47.578Z,7.30
2023-03-26T04:01:16.870Z,7.27
2023-03-26T04:03:47.122Z,7.47
2023-03-26T04:06:19.020Z,5.47
2023-03-26T04:08:48.789Z,6.50
2023-03-26T04:11:16.865Z,7.07
2023-03-26T04:13:45.271Z,4.90
2023-03-26T04:16:13.623Z,6.60
2023-03-26T04:18:41.764Z,6.30
2023-03-26T04:21:09.782Z,5.97
2023-03-26T04:23:37.837Z,7.33
2023-03-26T04:26:10.630Z,4.90
2023-03-26T04:28:47.617Z,6.30
2023-03-26T04:31:18.624Z,7.33
2023-03-26T04:33:48.237Z,5.73
2023-03-26T04:36:17.351Z,7.03
2023-03-26T04:38:49.520Z,9.03
2023-03-26T04:41:19.127Z,4.73
2023-03-26T04:43:50.522Z,3.83
2023-03-26T04:46:21.598Z,4.03
2023-03-26T04:48:49.916Z,9.10
2023-03-26T04:51:19.635Z,5.97
2023-03-26T04:53:52.406Z,5.67
2023-03-26T04:56:34.386Z,4.30
2023-03-26T04:59:03.838Z,5.20
2023-03-26T05:01:32.194Z,9.83
2023-03-26T05:04:01.167Z,6.20
2023-03-26T05:06:30.396Z,6.03
2023-03-26T05:08:58.484Z,7.80
2023-03-26T05:11:28.773Z,6.27
2023-03-26T05:13:57.545Z,6.20
2023-03-26T05:16:26.123Z,6.43
2023-03-26T05:18:54.309Z,7.13
2023-03-26T05:21:22.472Z,6.53
2023-03-26T05:23:51.196Z,5.23
2023-03-26T05:26:19.571Z,7.87
2023-03-26T05:28:48.981Z,4.43
2023-03-26T05:31:21.123Z,5.47
2023-03-26T05:33:49.573Z,6.90
2023-03-26T05:36:19.686Z,7.57
2023-03-26T05:38:49.679Z,7.33
2023-03-26T05:41:18.391Z,5.23
2023-03-26T05:43:47.695Z,7.10
2023-03-26T05:46:18.187Z,6.37
2023-03-26T05:48:46.767Z,6.57
2023-03-26T05:51:15.786Z,6.70
2023-03-26T05:54:08.802Z,4.97
2023-03-26T05:56:37.231Z,7.03
2023-03-26T05:59:07.165Z,7.20
2023-03-26T06:01:36.614Z,6.13
2023-03-26T06:04:04.734Z,4.03
2023-03-26T06:06:33.334Z,6.80
2023-03-26T06:09:02.974Z,6.67
2023-03-26T06:11:32.974Z,6.23
2023-03-26T06:14:01.541Z,6.47
2023-03-26T06:16:29.765Z,8.07
2023-03-26T06:18:59.182Z,9.03
2023-03-26T06:21:27.650Z,8.90
2023-03-26T06:23:56.473Z,7.27
2023-03-26T06:26:24.515Z,7.73
2023-03-26T06:28:52.599Z,7.00
2023-03-26T06:31:20.760Z,7.40
2023-03-26T06:33:48.919Z,9.00
2023-03-26T06:36:18.903Z,6.60
2023-03-26T06:38:46.993Z,8.00
2023-03-26T06:41:15.061Z,6.37
2023-03-26T06:43:43.037Z,4.77
2023-03-26T06:46:12.299Z,6.43
2023-03-26T06:48:42.397Z,4.90
2023-03-26T06:51:10.654Z,5.93
2023-03-26T06:53:40.032Z,8.77
2023-03-26T06:56:09.319Z,7.40
2023-03-26T06:58:37.446Z,6.43
2023-03-26T07:01:06.239Z,6.93
2023-03-26T07:03:34.357Z,6.43
2023-03-26T07:06:02.411Z,5.37
2023-03-26T07:08:31.583Z,7.60
2023-03-26T07:11:01.040Z,6.47
2023-03-26T07:13:29.698Z,7.80
2023-03-26T07:15:57.697Z,6.70
2023-03-26T07:18:25.913Z,6.17
2023-03-26T07:20:55.666Z,7.27
2023-03-26T07:23:24.360Z,6.20
2023-03-26T07:25:53.295Z,8.63
2023-03-26T07:28:28.338Z,7.10
2023-03-26T07:31:12.023Z,5.40
2023-03-26T07:33:46.765Z,6.77
2023-03-26T07:36:26.820Z,5.93
2023-03-26T07:39:10.688Z,7.30
2023-03-26T07:41:46.572Z,5.37
2023-03-26T07:44:40.401Z,7.83
2023-03-26T07:47:22.493Z,7.97
2023-03-26T07:49:51.711Z,6.20
2023-03-26T07:52:20.321Z,6.03
2023-03-26T07:54:48.868Z,7.87
2023-03-26T07:57:30.754Z,3.93
2023-03-26T08:00:08.287Z,6.57
2023-03-26T08:02:56.379Z,8.73
2023-03-26T08:05:28.814Z,7.80
2023-03-26T08:08:19.719Z,4.87
2023-03-26T08:11:01.967Z,4.40
2023-03-26T08:13:40.165Z,6.27
2023-03-26T08:16:17.258Z,5.50
2023-03-26T08:18:54.578Z,3.83
2023-03-26T08:21:27.159Z,6.47
2023-03-26T08:24:06.345Z,5.70
2023-03-26T08:26:42.120Z,8.07
2023-03-26T08:29:20.543Z,5.87
2023-03-26T08:31:50.697Z,7.80
2023-03-26T08:34:18.970Z,4.80
2023-03-26T08:36:47.643Z,5.67
2023-03-26T08:39:15.902Z,9.00
2023-03-26T08:42:20.724Z,4.30
2023-03-26T08:45:36.576Z,5.40
2023-03-26T08:48:36.026Z,9.57
2023-03-26T08:51:36.554Z,8.27
2023-03-26T08:54:32.575Z,5.47
2023-03-26T08:57:25.975Z,5.90
2023-03-26T09:00:42.665Z,10.77
2023-03-26T09:03:41.278Z,8.43
2023-03-26T09:10:15.729Z,7.13
2023-03-26T09:13:11.846Z,8.77
2023-03-26T09:16:07.751Z,8.50
2023-03-26T09:19:05.193Z,14.27
2023-03-26T09:21:53.131Z,9.33
2023-03-26T09:24:53.956Z,7.40
2023-03-26T09:27:40.155Z,6.80
2023-03-26T09:30:37.776Z,9.43
2023-03-26T09:33:45.128Z,7.20
2023-03-26T09:36:42.626Z,5.63
2023-03-26T09:39:18.363Z,6.77
2023-03-26T09:41:58.946Z,5.50
2023-03-26T09:45:02.443Z,7.70
2023-03-26T09:48:05.628Z,8.37
2023-03-26T09:50:52.491Z,8.60
2023-03-26T09:53:45.209Z,5.23
2023-03-26T09:56:26.813Z,7.00
2023-03-26T09:59:22.273Z,6.97
2023-03-26T10:01:58.604Z,8.53
2023-03-26T10:05:02.525Z,9.03
2023-03-26T10:07:55.933Z,7.30
2023-03-26T10:10:32.824Z,6.13
2023-03-26T10:13:14.500Z,9.17
2023-03-26T10:15:59.171Z,7.53
2023-03-26T10:18:38.879Z,7.70
2023-03-26T10:21:11.787Z,7.30
2023-03-26T10:24:02.669Z,7.83
2023-03-26T10:27:08.407Z,6.40
2023-03-26T10:30:08.381Z,7.67
2023-03-26T10:32:45.934Z,5.00
2023-03-26T10:35:25.760Z,5.83
2023-03-26T10:38:10.208Z,8.07
2023-03-26T10:40:46.252Z,5.87
2023-03-26T10:43:46.328Z,8.50
2023-03-26T10:46:46.725Z,7.03
2023-03-26T10:49:49.343Z,7.20
2023-03-26T10:52:20.946Z,5.53
2023-03-26T10:54:57.029Z,7.00
2023-03-26T10:57:37.042Z,7.10
2023-03-26T11:00:17.220Z,6.17
2023-03-26T11:02:55.686Z,6.27
2023-03-26T11:05:45.845Z,5.30
2023-03-26T11:08:20.195Z,7.87
2023-03-26T11:11:07.230Z,5.93
2023-03-26T11:13:46.649Z,7.57
2023-03-26T11:16:22.950Z,5.87
2023-03-26T11:18:57.293Z,5.63
2023-03-26T11:21:31.419Z,3.87
2023-03-26T11:24:22.055Z,6.67
2023-03-26T11:26:55.698Z,5.30
2023-03-26T11:29:37.026Z,6.23
2023-03-26T11:32:11.907Z,6.03
2023-03-26T11:34:43.244Z,4.43
2023-03-26T11:37:19.819Z,4.83
2023-03-26T11:39:53.880Z,8.83
2023-03-26T11:42:26.532Z,4.60
2023-03-26T11:44:58.236Z,4.10
2023-03-26T11:47:34.114Z,3.20
2023-03-26T11:50:04.570Z,3.73
2023-03-26T11:52:32.878Z,3.63
2023-03-26T11:55:00.958Z,2.93
2023-03-26T11:57:33.322Z,3.03
2023-03-26T12:00:11.896Z,4.73
2023-03-26T12:02:43.108Z,2.93
2023-03-26T12:05:18.279Z,3.33
2023-03-26T12:07:53.954Z,2.80
2023-03-26T12:10:25.257Z,2.70
2023-03-26T12:12:56.670Z,2.00
2023-03-26T12:15:26.105Z,2.73
2023-03-26T12:17:57.137Z,1.63
2023-03-26T12:20:38.951Z,3.53
2023-03-26T12:23:08.388Z,2.93
2023-03-26T12:25:39.244Z,2.10
2023-03-26T12:28:18.791Z,1.70
2023-03-26T12:30:54.995Z,3.70
2023-03-26T12:33:29.124Z,1.60
2023-03-26T12:36:00.476Z,1.00
2023-03-26T12:38:33.155Z,1.13
2023-03-26T12:43:51.508Z,1.13
2023-03-26T12:44:50.058Z,0.70
2023-03-26T12:47:57.722Z,0.70
2023-03-26T12:50:14.396Z,1.60
2023-03-26T12:53:02.432Z,1.63
2023-03-26T12:55:42.394Z,2.27
2023-03-26T12:58:41.073Z,1.90
2023-03-26T13:01:16.796Z,1.97
2023-03-26T13:04:06.385Z,1.53
2023-03-26T13:07:00.037Z,1.67
2023-03-26T13:09:53.050Z,1.93
2023-03-26T13:12:35.195Z,2.60
2023-03-26T13:15:23.720Z,4.27
2023-03-26T13:18:08.247Z,1.70
2023-03-26T13:20:50.300Z,2.83
2023-03-26T13:23:38.787Z,3.70
2023-03-26T13:26:16.348Z,1.93
2023-03-26T13:28:55.991Z,3.23
2023-03-26T13:31:29.854Z,2.03
2023-03-26T13:34:04.012Z,5.13
2023-03-26T13:36:44.489Z,2.43
2023-03-26T13:39:24.835Z,4.97
2023-03-26T13:42:10.950Z,1.43
2023-03-26T13:44:47.593Z,1.50
2023-03-26T13:47:20.773Z,2.20
2023-03-26T13:49:53.996Z,2.57
2023-03-26T13:52:25.718Z,3.40
2023-03-26T13:55:01.836Z,1.67
2023-03-26T13:57:35.780Z,1.87
2023-03-26T14:00:08.391Z,1.30
2023-03-26T14:02:41.274Z,2.70
2023-03-26T14:05:16.721Z,17.37
2023-03-26T14:07:48.017Z,26.73
2023-03-26T14:10:22.697Z,9.03
2023-03-26T14:12:58.031Z,13.57
2023-03-26T14:15:30.957Z,18.40
2023-03-26T14:18:07.967Z,35.80
2023-03-26T14:21:22.181Z,14.07
2023-03-26T14:24:35.993Z,7.63
2023-03-26T14:27:34.079Z,3.33
2023-03-26T14:30:35.632Z,6.47
2023-03-26T14:33:27.192Z,3.90
2023-03-26T14:36:01.391Z,5.83
2023-03-26T14:38:59.168Z,1.27
2023-03-26T14:41:31.099Z,3.97
2023-03-26T14:44:48.170Z,1.83
2023-03-26T14:47:19.033Z,1.87
2023-03-26T14:50:23.352Z,2.00
2023-03-26T14:53:01.435Z,2.97
2023-03-26T14:55:57.196Z,1.10
2023-03-26T14:58:58.677Z,1.10
2023-03-26T15:01:31.265Z,0.87
2023-03-26T15:04:46.055Z,1.57
2023-03-26T15:07:41.286Z,3.33
2023-03-26T15:10:28.087Z,1.37
2023-03-26T15:13:10.100Z,3.53
2023-03-26T15:16:12.966Z,2.73
2023-03-26T15:19:14.536Z,2.20
2023-03-26T15:22:26.122Z,1.93
2023-03-26T15:25:40.180Z,2.53
2023-03-26T15:28:53.642Z,2.03
2023-03-26T15:31:57.283Z,3.73
2023-03-26T15:34:48.747Z,0.80
2023-03-26T15:37:54.277Z,1.50
2023-03-26T15:40:46.662Z,1.40
2023-03-26T15:43:17.241Z,1.60
2023-03-26T15:45:50.473Z,1.67
2023-03-26T15:48:52.922Z,2.67
2023-03-26T15:51:46.561Z,2.17
2023-03-26T15:54:24.758Z,3.07
2023-03-26T15:57:19.987Z,3.47
2023-03-26T16:00:12.391Z,5.63
2023-03-26T16:02:50.558Z,4.33
2023-03-26T16:05:37.622Z,2.30
2023-03-26T16:08:21.420Z,1.83
2023-03-26T16:10:54.249Z,2.33
2023-03-26T16:13:33.855Z,5.20
2023-03-26T16:16:26.054Z,3.37
2023-03-26T16:18:59.734Z,2.13
2023-03-26T16:21:46.979Z,4.17
2023-03-26T16:24:26.431Z,3.27
2023-03-26T16:27:09.498Z,2.27
2023-03-26T16:30:20.223Z,4.73
2023-03-26T16:32:54.113Z,2.50
2023-03-26T16:35:41.636Z,1.77
2023-03-26T16:38:16.504Z,2.33
2023-03-26T16:41:18.448Z,3.03
2023-03-26T16:44:11.932Z,1.80
2023-03-26T16:46:50.807Z,3.40
2023-03-26T16:49:32.386Z,2.50
2023-03-26T16:52:09.705Z,11.53
2023-03-26T16:54:47.113Z,13.67
2023-03-26T16:57:27.341Z,13.37
2023-03-26T17:00:24.915Z,7.47
2023-03-26T17:03:03.692Z,7.40
2023-03-26T17:05:38.004Z,5.00
2023-03-26T17:08:19.027Z,8.53
2023-03-26T17:11:10.936Z,3.63
2023-03-26T17:13:48.802Z,4.17
2023-03-26T17:16:22.539Z,2.93
2023-03-26T17:18:59.025Z,1.97
2023-03-26T17:21:45.617Z,1.67
2023-03-26T17:24:26.650Z,2.23
2023-03-26T17:27:00.005Z,3.57
2023-03-26T17:29:40.902Z,2.60
2023-03-26T17:32:12.884Z,4.80
2023-03-26T17:34:53.116Z,2.17
2023-03-26T17:37:36.357Z,4.00
2023-03-26T17:40:49.082Z,3.37
2023-03-26T17:43:43.330Z,2.83
2023-03-26T17:46:33.121Z,11.13
2023-03-26T17:49:08.030Z,17.13
2023-03-26T17:51:50.394Z,4.73
2023-03-26T17:54:25.077Z,3.93
2023-03-26T17:56:56.594Z,1.77
2023-03-26T17:59:28.394Z,3.53
2023-03-26T18:02:00.999Z,2.17
2023-03-26T18:04:36.071Z,2.70
2023-03-26T18:07:38.466Z,1.50
2023-03-26T18:10:28.850Z,1.57
2023-03-26T18:13:08.437Z,1.20
2023-03-26T18:15:49.612Z,1.87
2023-03-26T18:18:23.640Z,1.97
2023-03-26T18:20:54.609Z,1.83
2023-03-26T18:23:27.228Z,3.10
2023-03-26T18:25:59.399Z,1.53
2023-03-26T18:28:36.886Z,1.87
2023-03-26T18:31:18.821Z,0.83
2023-03-26T18:33:50.483Z,1.27
2023-03-26T18:36:21.312Z,0.73
2023-03-26T18:38:49.753Z,2.07
2023-03-26T18:41:25.650Z,2.40
2023-03-26T18:43:53.942Z,2.93
2023-03-26T18:46:25.258Z,2.73
2023-03-26T18:48:55.834Z,1.07
2023-03-26T18:51:27.318Z,1.40
2023-03-26T18:53:59.339Z,1.00
2023-03-26T18:56:31.397Z,1.07
2023-03-26T18:59:01.504Z,0.77
2023-03-26T19:01:31.869Z,1.80
2023-03-26T19:04:05.354Z,2.73
2023-03-26T19:06:38.590Z,0.53
2023-03-26T19:09:20.021Z,1.87
2023-03-26T19:11:58.208Z,1.03
2023-03-26T19:14:28.629Z,0.90
2023-03-26T19:17:02.200Z,0.80
2023-03-26T19:19:36.717Z,0.77
2023-03-26T19:22:07.172Z,0.87
2023-03-26T19:24:36.211Z,0.70
2023-03-26T19:27:05.190Z,0.60
2023-03-26T19:29:35.849Z,0.67
2023-03-26T19:32:05.911Z,1.23
2023-03-26T19:34:39.404Z,0.90
2023-03-26T19:37:20.468Z,1.60
2023-03-26T19:39:51.335Z,0.80
2023-03-26T19:42:26.537Z,1.17
2023-03-26T19:44:55.835Z,0.60
2023-03-26T19:47:39.084Z,2.20
2023-03-26T19:50:26.334Z,2.07
2023-03-26T19:53:17.880Z,1.93
2023-03-26T19:55:55.627Z,1.37
2023-03-26T19:58:24.204Z,0.80
2023-03-26T20:00:52.823Z,1.30
2023-03-26T20:03:26.747Z,3.23
2023-03-26T20:05:56.539Z,0.70
2023-03-26T20:08:27.401Z,0.70
2023-03-26T20:10:56.753Z,0.70
2023-03-26T20:13:25.212Z,1.73
2023-03-26T20:16:06.027Z,1.40
2023-03-26T20:18:35.628Z,1.27
2023-03-26T20:21:11.631Z,1.13
2023-03-26T20:23:40.839Z,1.73
2023-03-26T20:26:14.152Z,2.13
2023-03-26T20:28:48.075Z,1.87
2023-03-26T20:31:19.387Z,1.57
2023-03-26T20:33:48.051Z,0.60
2023-03-26T20:36:34.257Z,0.90
2023-03-26T20:39:06.944Z,2.40
2023-03-26T20:41:38.035Z,1.37
2023-03-26T20:44:13.490Z,1.43
2023-03-26T20:46:41.709Z,1.60
2023-03-26T20:49:10.701Z,1.90
2023-03-26T20:51:42.061Z,2.23
2023-03-26T20:54:21.265Z,1.53
2023-03-26T20:56:50.187Z,2.33
2023-03-26T20:59:21.963Z,2.30
2023-03-26T21:01:51.550Z,1.80
2023-03-26T21:04:21.257Z,2.87
2023-03-26T21:06:51.781Z,7.10
2023-03-26T21:09:24.345Z,5.40
2023-03-26T21:12:01.923Z,12.10
2023-03-26T21:14:34.395Z,6.30
2023-03-26T21:17:03.001Z,6.47
2023-03-26T21:19:32.276Z,1.33
2023-03-26T21:22:12.333Z,4.10
2023-03-26T21:25:02.183Z,24.37
2023-03-26T21:27:34.887Z,3.87
2023-03-26T21:30:04.453Z,2.83
2023-03-26T21:32:33.190Z,2.20
2023-03-26T21:35:03.520Z,1.43
2023-03-26T21:37:33.652Z,1.30
2023-03-26T21:40:12.680Z,1.33
2023-03-26T21:42:41.789Z,1.83
2023-03-26T21:45:11.204Z,1.20
2023-03-26T21:47:39.895Z,1.50
2023-03-26T21:50:10.087Z,2.30
2023-03-26T21:52:47.126Z,1.33
2023-03-26T21:55:17.864Z,7.63
2023-03-26T21:58:12.358Z,5.37
2023-03-26T22:00:48.487Z,2.77
2023-03-26T22:03:25.076Z,1.53
2023-03-26T22:06:00.061Z,2.63
2023-03-26T22:08:32.817Z,1.20
2023-03-26T22:11:00.857Z,1.30
2023-03-26T22:13:29.299Z,1.50
2023-03-26T22:15:57.664Z,1.57
2023-03-26T22:18:26.069Z,1.70
2023-03-26T22:20:55.078Z,1.23
2023-03-26T22:23:23.958Z,0.63
2023-03-26T22:25:59.542Z,1.67
2023-03-26T22:28:28.490Z,0.67
2023-03-26T22:30:57.151Z,1.97
2023-03-26T22:33:25.615Z,16.27
2023-03-26T22:35:53.968Z,8.03
2023-03-26T22:38:22.675Z,1.33
2023-03-26T22:40:57.797Z,0.80
2023-03-26T22:43:26.187Z,0.63
2023-03-26T22:45:55.101Z,0.77
2023-03-26T22:48:24.610Z,1.60
2023-03-26T22:50:59.825Z,0.73
2023-03-26T22:53:28.118Z,0.50
2023-03-26T22:55:57.910Z,0.60
2023-03-26T22:58:27.246Z,1.10
2023-03-26T23:01:04.317Z,1.00
2023-03-26T23:03:34.911Z,0.87
2023-03-26T23:06:05.383Z,1.83
2023-03-26T23:08:34.443Z,0.97
2023-03-26T23:11:03.921Z,1.37
2023-03-26T23:13:32.048Z,1.57
2023-03-26T23:16:00.085Z,2.20
2023-03-26T23:18:30.509Z,2.40
2023-03-26T23:20:59.679Z,1.87
2023-03-26T23:23:29.438Z,0.70
2023-03-26T23:25:58.988Z,2.80
2023-03-26T23:28:30.215Z,1.47
2023-03-26T23:30:59.060Z,0.80
2023-03-26T23:33:30.631Z,0.50
2023-03-26T23:36:00.290Z,1.43
2023-03-26T23:38:43.186Z,1.03
2023-03-26T23:41:15.352Z,1.37
2023-03-26T23:43:54.286Z,1.13
2023-03-26T23:46:23.947Z,0.90
2023-03-26T23:48:52.479Z,1.63
2023-03-26T23:51:21.241Z,1.07
2023-03-26T23:53:50.186Z,0.73
2023-03-26T23:56:18.964Z,1.67
2023-03-26T23:58:49.669Z,1.17
